Terminal Aerodrome Forecast
Issued by NWS Lake Charles, LA

Home | Current Version | Previous Version | Text Only | Print | Product List | Glossary On
Versions: 1 2 3 4 5 6 7 8 9 10 11 12 13 14 15 16 17 18 19 20
000
FTUS44 KLCH 232000 AAA
TAFARA
TAF AMD
KARA 232014Z 2320/2418 22012G24KT P6SM SCT030
     FM232200 20012KT P6SM SKC
     FM241000 30012G18KT P6SM BKN250=

USA.gov is the U.S. government's official web portal to all federal, state and local government web resources and services.